createdAt,value
2023-04-18T00:05:02.262Z,103102.00
2023-04-18T00:15:23.979Z,103107.00
2023-04-18T00:25:46.595Z,103109.00
2023-04-18T00:36:08.248Z,103114.00
2023-04-18T00:46:31.045Z,103109.00
2023-04-18T00:56:52.661Z,103114.00
2023-04-18T01:07:15.776Z,103109.00
2023-04-18T01:17:38.450Z,103114.00
2023-04-18T01:28:02.517Z,103127.00
2023-04-18T01:38:25.459Z,103131.00
2023-04-18T01:48:49.659Z,103129.00
2023-04-18T01:59:13.406Z,103118.00
2023-04-18T02:09:36.453Z,103117.00
2023-04-18T02:19:58.272Z,103112.00
2023-04-18T02:30:21.153Z,103122.00
2023-04-18T02:40:43.673Z,103112.00
2023-04-18T02:51:07.553Z,103114.00
2023-04-18T03:01:31.502Z,103117.00
2023-04-18T03:12:14.752Z,103119.00
2023-04-18T03:22:37.037Z,103114.00
2023-04-18T03:33:02.710Z,103117.00
2023-04-18T03:43:25.164Z,103114.00
2023-04-18T03:53:48.474Z,103117.00
2023-04-18T04:04:15.186Z,103125.00
2023-04-18T04:14:38.357Z,103135.00
2023-04-18T04:25:01.377Z,103134.00
2023-04-18T04:35:32.066Z,103136.00
2023-04-18T04:45:54.664Z,103148.00
2023-04-18T04:56:20.542Z,103137.00
2023-04-18T05:06:42.466Z,103130.00
2023-04-18T05:17:05.400Z,103129.00
2023-04-18T05:27:27.301Z,103140.00
2023-04-18T05:37:57.223Z,103141.00
2023-04-18T05:48:18.945Z,103158.00
2023-04-18T05:58:41.742Z,103160.00
2023-04-18T06:09:03.497Z,103158.00
2023-04-18T06:19:26.575Z,103148.00
2023-04-18T06:29:48.038Z,103164.00
2023-04-18T06:40:12.028Z,103171.00
2023-04-18T06:50:33.392Z,103161.00
2023-04-18T07:00:56.595Z,103169.00
2023-04-18T07:11:18.671Z,103164.00
2023-04-18T07:21:43.637Z,103164.00
2023-04-18T07:32:34.664Z,103187.00
2023-04-18T07:43:07.991Z,103181.00
2023-04-18T07:53:29.247Z,103166.00
2023-04-18T08:03:53.613Z,103169.00
2023-04-18T08:14:15.372Z,103165.00
2023-04-18T08:24:38.612Z,103179.00
2023-04-18T08:35:00.788Z,103162.00
2023-04-18T08:45:24.161Z,103168.00
2023-04-18T08:55:47.591Z,103147.00
2023-04-18T09:06:13.579Z,103141.00
2023-04-18T09:16:47.730Z,103133.00
2023-04-18T09:27:14.258Z,103143.00
2023-04-18T09:37:36.286Z,103132.00
2023-04-18T09:48:04.173Z,103143.00
2023-04-18T09:58:26.911Z,103142.00
2023-04-18T10:08:53.536Z,103118.00
2023-04-18T10:19:23.581Z,103118.00
2023-04-18T10:29:49.864Z,103123.00
2023-04-18T10:40:12.216Z,103117.00
2023-04-18T10:50:35.275Z,103102.00
2023-04-18T11:00:57.742Z,103105.00
2023-04-18T11:11:20.863Z,103101.00
2023-04-18T11:21:42.580Z,103088.00
2023-04-18T11:32:08.888Z,103100.00
2023-04-18T11:42:33.902Z,103077.00
2023-04-18T11:52:57.138Z,103086.00
2023-04-18T12:03:20.836Z,103088.00
2023-04-18T12:13:47.140Z,103079.00
2023-04-18T12:24:16.006Z,103086.00
2023-04-18T12:34:38.943Z,103090.00
2023-04-18T12:45:03.369Z,103074.00
2023-04-18T12:55:27.867Z,103077.00
2023-04-18T13:05:51.897Z,103068.00
2023-04-18T13:16:14.591Z,103047.00
2023-04-18T13:26:37.836Z,103046.00
2023-04-18T13:37:00.760Z,103045.00
2023-04-18T13:47:22.049Z,103039.00
2023-04-18T13:57:45.902Z,103038.00
2023-04-18T14:08:07.468Z,103032.00
2023-04-18T14:18:31.591Z,103031.00
2023-04-18T14:28:53.494Z,103026.00
2023-04-18T14:39:16.280Z,103007.00
2023-04-18T14:49:37.788Z,103008.00
2023-04-18T15:00:00.447Z,103004.00
2023-04-18T15:10:22.496Z,102989.00
2023-04-18T15:20:45.589Z,102981.00
2023-04-18T15:31:09.149Z,102974.00
2023-04-18T15:41:32.646Z,102973.00
2023-04-18T15:51:54.317Z,102998.00
2023-04-18T16:02:17.120Z,102977.00
2023-04-18T16:12:39.521Z,102979.00
2023-04-18T16:23:02.914Z,102992.00
2023-04-18T16:33:25.820Z,102989.00
2023-04-18T16:43:52.152Z,102977.00
2023-04-18T16:54:14.116Z,103003.00
2023-04-18T17:04:37.579Z,103005.00
2023-04-18T17:14:59.206Z,103010.00
2023-04-18T17:25:23.040Z,103019.00
2023-04-18T17:35:44.581Z,103029.00
2023-04-18T17:46:07.961Z,103035.00
2023-04-18T17:56:30.562Z,103035.00
2023-04-18T18:06:57.157Z,103044.00
2023-04-18T18:17:18.802Z,103081.00
2023-04-18T18:27:42.759Z,103082.00
2023-04-18T18:38:04.502Z,103101.00
2023-04-18T18:48:28.749Z,103095.00
2023-04-18T18:58:50.231Z,103111.00
2023-04-18T19:09:13.640Z,103119.00
2023-04-18T19:19:36.209Z,103129.00
2023-04-18T19:29:59.354Z,103141.00
2023-04-18T19:40:20.929Z,103135.00
2023-04-18T19:50:47.246Z,103155.00
2023-04-18T20:01:09.937Z,103151.00
2023-04-18T20:11:33.290Z,103143.00
2023-04-18T20:21:54.835Z,103143.00
2023-04-18T20:32:17.592Z,103143.00
2023-04-18T20:42:39.653Z,103162.00
2023-04-18T20:53:03.948Z,103166.00
2023-04-18T21:03:26.177Z,103167.00
2023-04-18T21:13:49.272Z,103169.00
2023-04-18T21:24:11.116Z,103165.00
2023-04-18T21:34:33.932Z,103170.00
2023-04-18T21:44:55.807Z,103169.00
2023-04-18T21:55:18.770Z,103191.00
2023-04-18T22:05:40.638Z,103186.00
2023-04-18T22:16:04.073Z,103178.00
2023-04-18T22:26:25.773Z,103163.00
2023-04-18T22:36:48.373Z,103170.00
2023-04-18T22:47:10.234Z,103139.00
2023-04-18T22:57:33.074Z,103124.00
2023-04-18T23:07:54.560Z,103123.00
2023-04-18T23:18:17.664Z,103108.00
2023-04-18T23:28:39.272Z,103131.00
2023-04-18T23:39:02.166Z,103111.00
2023-04-18T23:49:23.705Z,103101.00
2023-04-18T23:59:46.226Z,103093.00
